sensor_id;sensor_type;location;lat;lon;timestamp;temperature;humidity
27781;DHT22;15167;1.318;103.762;2023-04-24T00:01:40;28.70;53.70
27781;DHT22;15167;1.318;103.762;2023-04-24T00:04:06;28.70;50.60
27781;DHT22;15167;1.318;103.762;2023-04-24T00:06:36;28.80;44.40
27781;DHT22;15167;1.318;103.762;2023-04-24T00:09:03;28.90;34.90
27781;DHT22;15167;1.318;103.762;2023-04-24T00:11:29;29.00;31.80
27781;DHT22;15167;1.318;103.762;2023-04-24T00:13:56;29.00;13.00
27781;DHT22;15167;1.318;103.762;2023-04-24T00:16:22;29.10;4.80
27781;DHT22;15167;1.318;103.762;2023-04-24T00:18:48;29.20;3.40
27781;DHT22;15167;1.318;103.762;2023-04-24T00:21:15;29.20;1.00
27781;DHT22;15167;1.318;103.762;2023-04-24T00:23:44;29.30;1.60
27781;DHT22;15167;1.318;103.762;2023-04-24T00:26:10;29.30;1.00
27781;DHT22;15167;1.318;103.762;2023-04-24T00:28:36;29.80;1.00
27781;DHT22;15167;1.318;103.762;2023-04-24T00:31:02;29.50;1.00
27781;DHT22;15167;1.318;103.762;2023-04-24T00:33:28;29.50;1.00
27781;DHT22;15167;1.318;103.762;2023-04-24T00:35:54;29.60;1.00
27781;DHT22;15167;1.318;103.762;2023-04-24T00:38:20;29.70;1.00
27781;DHT22;15167;1.318;103.762;2023-04-24T00:40:48;29.70;1.00
27781;DHT22;15167;1.318;103.762;2023-04-24T00:43:15;29.70;1.00
27781;DHT22;15167;1.318;103.762;2023-04-24T00:45:41;29.80;1.00
27781;DHT22;15167;1.318;103.762;2023-04-24T00:48:08;29.80;1.00
27781;DHT22;15167;1.318;103.762;2023-04-24T00:50:38;29.90;1.00
27781;DHT22;15167;1.318;103.762;2023-04-24T00:53:04;30.00;1.00
27781;DHT22;15167;1.318;103.762;2023-04-24T00:55:30;30.00;1.00
27781;DHT22;15167;1.318;103.762;2023-04-24T00:57:57;30.00;1.00
27781;DHT22;15167;1.318;103.762;2023-04-24T01:00:23;30.10;1.00
27781;DHT22;15167;1.318;103.762;2023-04-24T01:02:49;30.10;99.90
27781;DHT22;15167;1.318;103.762;2023-04-24T01:05:17;30.20;99.90
27781;DHT22;15167;1.318;103.762;2023-04-24T01:07:45;30.30;99.90
27781;DHT22;15167;1.318;103.762;2023-04-24T01:10:15;30.30;99.90
27781;DHT22;15167;1.318;103.762;2023-04-24T01:12:43;30.40;99.90
27781;DHT22;15167;1.318;103.762;2023-04-24T01:15:09;30.30;99.90
27781;DHT22;15167;1.318;103.762;2023-04-24T01:17:35;30.20;99.90
27781;DHT22;15167;1.318;103.762;2023-04-24T01:20:02;30.20;99.90
27781;DHT22;15167;1.318;103.762;2023-04-24T01:22:32;30.40;99.90
27781;DHT22;15167;1.318;103.762;2023-04-24T01:24:58;30.50;99.90
27781;DHT22;15167;1.318;103.762;2023-04-24T01:27:25;30.60;99.90
27781;DHT22;15167;1.318;103.762;2023-04-24T01:29:51;30.80;99.90
27781;DHT22;15167;1.318;103.762;2023-04-24T01:32:17;30.90;99.90
27781;DHT22;15167;1.318;103.762;2023-04-24T01:34:44;31.00;99.90
27781;DHT22;15167;1.318;103.762;2023-04-24T01:37:11;31.00;99.90
27781;DHT22;15167;1.318;103.762;2023-04-24T01:39:37;31.10;99.90
27781;DHT22;15167;1.318;103.762;2023-04-24T01:42:04;31.10;99.90
27781;DHT22;15167;1.318;103.762;2023-04-24T01:44:30;31.10;99.90
27781;DHT22;15167;1.318;103.762;2023-04-24T01:46:57;31.30;99.90
27781;DHT22;15167;1.318;103.762;2023-04-24T01:49:23;31.30;99.90
27781;DHT22;15167;1.318;103.762;2023-04-24T01:51:50;31.40;99.90
27781;DHT22;15167;1.318;103.762;2023-04-24T01:54:16;31.40;99.90
27781;DHT22;15167;1.318;103.762;2023-04-24T01:56:42;31.40;99.90
27781;DHT22;15167;1.318;103.762;2023-04-24T01:59:11;31.40;99.90
27781;DHT22;15167;1.318;103.762;2023-04-24T02:01:37;31.30;99.90
27781;DHT22;15167;1.318;103.762;2023-04-24T02:04:04;31.30;99.90
27781;DHT22;15167;1.318;103.762;2023-04-24T02:06:31;31.30;99.90
27781;DHT22;15167;1.318;103.762;2023-04-24T02:08:58;31.30;99.90
27781;DHT22;15167;1.318;103.762;2023-04-24T02:11:24;31.30;99.90
27781;DHT22;15167;1.318;103.762;2023-04-24T02:13:50;31.30;99.90
27781;DHT22;15167;1.318;103.762;2023-04-24T02:16:17;31.40;99.90
27781;DHT22;15167;1.318;103.762;2023-04-24T02:18:43;31.50;99.90
27781;DHT22;15167;1.318;103.762;2023-04-24T02:21:09;31.60;99.90
27781;DHT22;15167;1.318;103.762;2023-04-24T02:23:35;31.70;99.90
27781;DHT22;15167;1.318;103.762;2023-04-24T02:26:01;31.90;99.90
27781;DHT22;15167;1.318;103.762;2023-04-24T02:28:28;32.10;81.40
27781;DHT22;15167;1.318;103.762;2023-04-24T02:30:54;32.10;96.10
27781;DHT22;15167;1.318;103.762;2023-04-24T02:33:20;32.10;80.70
27781;DHT22;15167;1.318;103.762;2023-04-24T02:35:46;32.20;48.60
27781;DHT22;15167;1.318;103.762;2023-04-24T02:38:12;32.20;49.10
27781;DHT22;15167;1.318;103.762;2023-04-24T02:40:38;32.20;40.00
27781;DHT22;15167;1.318;103.762;2023-04-24T02:43:04;32.20;43.00
27781;DHT22;15167;1.318;103.762;2023-04-24T02:45:30;32.20;47.60
27781;DHT22;15167;1.318;103.762;2023-04-24T02:47:56;32.30;35.50
27781;DHT22;15167;1.318;103.762;2023-04-24T02:50:23;32.30;41.90
27781;DHT22;15167;1.318;103.762;2023-04-24T02:52:49;32.50;1.00
27781;DHT22;15167;1.318;103.762;2023-04-24T02:55:15;32.60;1.00
27781;DHT22;15167;1.318;103.762;2023-04-24T02:57:41;32.60;1.00
27781;DHT22;15167;1.318;103.762;2023-04-24T03:00:07;32.60;1.00
27781;DHT22;15167;1.318;103.762;2023-04-24T03:02:34;32.70;1.00
27781;DHT22;15167;1.318;103.762;2023-04-24T03:05:01;32.80;5.90
27781;DHT22;15167;1.318;103.762;2023-04-24T03:07:27;33.00;9.30
27781;DHT22;15167;1.318;103.762;2023-04-24T03:09:54;33.00;7.90
27781;DHT22;15167;1.318;103.762;2023-04-24T03:12:20;32.80;9.30
27781;DHT22;15167;1.318;103.762;2023-04-24T03:14:46;32.80;10.40
27781;DHT22;15167;1.318;103.762;2023-04-24T03:17:12;32.80;1.00
27781;DHT22;15167;1.318;103.762;2023-04-24T03:19:38;32.90;1.00
27781;DHT22;15167;1.318;103.762;2023-04-24T03:22:04;32.90;1.00
27781;DHT22;15167;1.318;103.762;2023-04-24T03:24:30;32.70;1.00
27781;DHT22;15167;1.318;103.762;2023-04-24T03:26:57;32.60;4.90
27781;DHT22;15167;1.318;103.762;2023-04-24T03:29:23;32.60;16.40
27781;DHT22;15167;1.318;103.762;2023-04-24T03:31:49;32.60;1.00
27781;DHT22;15167;1.318;103.762;2023-04-24T03:34:15;32.60;1.00
27781;DHT22;15167;1.318;103.762;2023-04-24T03:36:41;32.50;6.00
27781;DHT22;15167;1.318;103.762;2023-04-24T03:39:07;32.50;14.80
27781;DHT22;15167;1.318;103.762;2023-04-24T03:41:33;32.30;14.80
27781;DHT22;15167;1.318;103.762;2023-04-24T03:43:59;32.30;11.70
27781;DHT22;15167;1.318;103.762;2023-04-24T03:46:26;32.20;13.90
27781;DHT22;15167;1.318;103.762;2023-04-24T03:48:52;32.10;9.90
27781;DHT22;15167;1.318;103.762;2023-04-24T03:51:18;31.80;28.60
27781;DHT22;15167;1.318;103.762;2023-04-24T03:53:44;31.70;42.10
27781;DHT22;15167;1.318;103.762;2023-04-24T03:56:11;31.70;58.90
27781;DHT22;15167;1.318;103.762;2023-04-24T03:58:37;31.70;58.30
27781;DHT22;15167;1.318;103.762;2023-04-24T04:01:03;31.80;46.60
27781;DHT22;15167;1.318;103.762;2023-04-24T04:03:29;32.00;27.80
27781;DHT22;15167;1.318;103.762;2023-04-24T04:05:55;32.20;3.30
27781;DHT22;15167;1.318;103.762;2023-04-24T04:08:21;32.40;1.00
27781;DHT22;15167;1.318;103.762;2023-04-24T04:10:47;32.40;1.00
27781;DHT22;15167;1.318;103.762;2023-04-24T04:13:13;32.50;1.00
27781;DHT22;15167;1.318;103.762;2023-04-24T04:15:40;32.70;1.00
27781;DHT22;15167;1.318;103.762;2023-04-24T04:18:06;32.90;1.00
27781;DHT22;15167;1.318;103.762;2023-04-24T04:20:32;33.00;1.00
27781;DHT22;15167;1.318;103.762;2023-04-24T04:22:58;33.10;1.00
27781;DHT22;15167;1.318;103.762;2023-04-24T04:25:24;33.20;99.90
27781;DHT22;15167;1.318;103.762;2023-04-24T04:27:50;33.20;99.90
27781;DHT22;15167;1.318;103.762;2023-04-24T04:30:17;33.30;99.90
27781;DHT22;15167;1.318;103.762;2023-04-24T04:32:44;33.30;99.90
27781;DHT22;15167;1.318;103.762;2023-04-24T04:35:10;33.40;99.90
27781;DHT22;15167;1.318;103.762;2023-04-24T04:37:36;33.70;99.90
27781;DHT22;15167;1.318;103.762;2023-04-24T04:40:02;33.80;99.90
27781;DHT22;15167;1.318;103.762;2023-04-24T04:42:32;33.80;99.90
27781;DHT22;15167;1.318;103.762;2023-04-24T04:45:08;34.10;1.00
27781;DHT22;15167;1.318;103.762;2023-04-24T04:47:35;34.10;1.00
27781;DHT22;15167;1.318;103.762;2023-04-24T04:50:01;33.90;1.00
27781;DHT22;15167;1.318;103.762;2023-04-24T04:52:29;33.70;1.00
27781;DHT22;15167;1.318;103.762;2023-04-24T04:54:55;33.50;44.60
27781;DHT22;15167;1.318;103.762;2023-04-24T04:57:22;33.20;20.00
27781;DHT22;15167;1.318;103.762;2023-04-24T04:59:48;33.00;99.90
27781;DHT22;15167;1.318;103.762;2023-04-24T05:02:14;32.60;99.90
27781;DHT22;15167;1.318;103.762;2023-04-24T05:04:41;31.90;1.00
27781;DHT22;15167;1.318;103.762;2023-04-24T05:07:07;31.40;1.00
27781;DHT22;15167;1.318;103.762;2023-04-24T05:09:33;31.30;1.00
27781;DHT22;15167;1.318;103.762;2023-04-24T05:11:59;31.70;1.00
27781;DHT22;15167;1.318;103.762;2023-04-24T05:14:25;32.30;1.00
27781;DHT22;15167;1.318;103.762;2023-04-24T05:16:52;32.90;99.90
27781;DHT22;15167;1.318;103.762;2023-04-24T05:19:18;33.40;99.90
27781;DHT22;15167;1.318;103.762;2023-04-24T05:21:44;33.70;99.90
27781;DHT22;15167;1.318;103.762;2023-04-24T05:24:10;33.60;99.90
27781;DHT22;15167;1.318;103.762;2023-04-24T05:26:36;33.30;99.90
27781;DHT22;15167;1.318;103.762;2023-04-24T05:29:03;33.20;99.90
27781;DHT22;15167;1.318;103.762;2023-04-24T05:31:29;32.70;99.90
27781;DHT22;15167;1.318;103.762;2023-04-24T05:33:56;32.30;99.90
27781;DHT22;15167;1.318;103.762;2023-04-24T05:36:22;31.90;1.00
27781;DHT22;15167;1.318;103.762;2023-04-24T05:38:48;31.50;1.00
27781;DHT22;15167;1.318;103.762;2023-04-24T05:41:14;30.90;99.90
27781;DHT22;15167;1.318;103.762;2023-04-24T05:43:40;30.70;99.90
27781;DHT22;15167;1.318;103.762;2023-04-24T05:46:06;30.60;99.90
27781;DHT22;15167;1.318;103.762;2023-04-24T05:48:33;30.80;96.50
27781;DHT22;15167;1.318;103.762;2023-04-24T05:50:59;30.90;99.90
27781;DHT22;15167;1.318;103.762;2023-04-24T05:53:25;31.10;99.90
27781;DHT22;15167;1.318;103.762;2023-04-24T05:55:51;31.40;94.00
27781;DHT22;15167;1.318;103.762;2023-04-24T05:58:17;31.80;19.90
27781;DHT22;15167;1.318;103.762;2023-04-24T06:00:43;32.30;1.00
27781;DHT22;15167;1.318;103.762;2023-04-24T06:03:11;32.80;1.00
27781;DHT22;15167;1.318;103.762;2023-04-24T06:05:38;33.10;99.90
27781;DHT22;15167;1.318;103.762;2023-04-24T06:08:04;33.40;99.90
27781;DHT22;15167;1.318;103.762;2023-04-24T06:10:30;33.50;99.90
27781;DHT22;15167;1.318;103.762;2023-04-24T06:12:56;33.90;99.90
27781;DHT22;15167;1.318;103.762;2023-04-24T06:15:27;34.20;90.20
27781;DHT22;15167;1.318;103.762;2023-04-24T06:17:53;34.50;1.00
27781;DHT22;15167;1.318;103.762;2023-04-24T06:20:19;34.70;94.50
27781;DHT22;15167;1.318;103.762;2023-04-24T06:22:45;34.90;1.00
27781;DHT22;15167;1.318;103.762;2023-04-24T06:25:12;35.10;99.90
27781;DHT22;15167;1.318;103.762;2023-04-24T06:27:38;35.30;1.00
27781;DHT22;15167;1.318;103.762;2023-04-24T06:30:04;35.30;99.90
27781;DHT22;15167;1.318;103.762;2023-04-24T06:32:31;35.10;1.00
27781;DHT22;15167;1.318;103.762;2023-04-24T06:34:57;35.00;95.60
27781;DHT22;15167;1.318;103.762;2023-04-24T06:37:23;34.90;38.40
27781;DHT22;15167;1.318;103.762;2023-04-24T06:39:49;35.00;1.00
27781;DHT22;15167;1.318;103.762;2023-04-24T06:42:15;35.20;99.90
27781;DHT22;15167;1.318;103.762;2023-04-24T06:44:41;35.30;99.90
27781;DHT22;15167;1.318;103.762;2023-04-24T06:47:08;35.60;99.90
27781;DHT22;15167;1.318;103.762;2023-04-24T06:49:38;35.70;95.20
27781;DHT22;15167;1.318;103.762;2023-04-24T06:52:04;35.70;99.90
27781;DHT22;15167;1.318;103.762;2023-04-24T06:54:30;35.60;92.00
27781;DHT22;15167;1.318;103.762;2023-04-24T06:56:56;35.90;1.00
27781;DHT22;15167;1.318;103.762;2023-04-24T06:59:26;36.00;99.90
27781;DHT22;15167;1.318;103.762;2023-04-24T07:01:53;36.00;99.90
27781;DHT22;15167;1.318;103.762;2023-04-24T07:04:19;36.30;1.00
27781;DHT22;15167;1.318;103.762;2023-04-24T07:06:45;36.20;99.90
27781;DHT22;15167;1.318;103.762;2023-04-24T07:09:12;36.40;50.70
27781;DHT22;15167;1.318;103.762;2023-04-24T07:11:39;36.30;1.00
27781;DHT22;15167;1.318;103.762;2023-04-24T07:14:06;36.30;1.00
27781;DHT22;15167;1.318;103.762;2023-04-24T07:16:32;36.50;99.90
27781;DHT22;15167;1.318;103.762;2023-04-24T07:18:59;36.50;99.90
27781;DHT22;15167;1.318;103.762;2023-04-24T07:21:25;36.00;99.90
27781;DHT22;15167;1.318;103.762;2023-04-24T07:23:52;35.60;99.90
27781;DHT22;15167;1.318;103.762;2023-04-24T07:26:19;35.30;99.90
27781;DHT22;15167;1.318;103.762;2023-04-24T07:28:46;34.80;99.90
27781;DHT22;15167;1.318;103.762;2023-04-24T07:31:12;34.40;1.00
27781;DHT22;15167;1.318;103.762;2023-04-24T07:33:38;33.80;99.90
27781;DHT22;15167;1.318;103.762;2023-04-24T07:36:04;33.50;99.90
27781;DHT22;15167;1.318;103.762;2023-04-24T07:38:30;33.10;99.90
27781;DHT22;15167;1.318;103.762;2023-04-24T07:40:57;32.80;99.90
27781;DHT22;15167;1.318;103.762;2023-04-24T07:43:23;32.60;99.90
27781;DHT22;15167;1.318;103.762;2023-04-24T07:45:52;32.40;1.00
27781;DHT22;15167;1.318;103.762;2023-04-24T07:48:18;32.20;1.00
27781;DHT22;15167;1.318;103.762;2023-04-24T07:50:44;32.00;1.00
27781;DHT22;15167;1.318;103.762;2023-04-24T07:53:10;31.00;1.00
27781;DHT22;15167;1.318;103.762;2023-04-24T07:55:37;30.00;43.50
27781;DHT22;15167;1.318;103.762;2023-04-24T07:58:03;29.40;99.90
27781;DHT22;15167;1.318;103.762;2023-04-24T08:00:29;29.30;99.90
27781;DHT22;15167;1.318;103.762;2023-04-24T08:02:56;29.20;99.90
27781;DHT22;15167;1.318;103.762;2023-04-24T08:05:22;29.00;99.90
27781;DHT22;15167;1.318;103.762;2023-04-24T08:07:50;28.60;99.90
27781;DHT22;15167;1.318;103.762;2023-04-24T08:10:17;28.40;99.90
27781;DHT22;15167;1.318;103.762;2023-04-24T08:12:43;28.30;99.90
27781;DHT22;15167;1.318;103.762;2023-04-24T08:15:09;28.20;99.90
27781;DHT22;15167;1.318;103.762;2023-04-24T08:17:35;28.30;99.90
27781;DHT22;15167;1.318;103.762;2023-04-24T08:20:02;28.40;99.90
27781;DHT22;15167;1.318;103.762;2023-04-24T08:22:30;28.60;99.90
27781;DHT22;15167;1.318;103.762;2023-04-24T08:24:57;28.70;99.90
27781;DHT22;15167;1.318;103.762;2023-04-24T08:27:23;28.30;99.90
27781;DHT22;15167;1.318;103.762;2023-04-24T08:29:49;28.30;99.90
27781;DHT22;15167;1.318;103.762;2023-04-24T08:32:16;28.30;99.90
27781;DHT22;15167;1.318;103.762;2023-04-24T08:34:42;28.30;99.90
27781;DHT22;15167;1.318;103.762;2023-04-24T08:37:08;28.20;99.90
27781;DHT22;15167;1.318;103.762;2023-04-24T08:39:35;28.10;99.90
27781;DHT22;15167;1.318;103.762;2023-04-24T08:42:01;28.10;99.90
27781;DHT22;15167;1.318;103.762;2023-04-24T08:44:31;27.90;99.90
27781;DHT22;15167;1.318;103.762;2023-04-24T08:46:58;28.30;99.90
27781;DHT22;15167;1.318;103.762;2023-04-24T08:49:24;28.30;99.90
27781;DHT22;15167;1.318;103.762;2023-04-24T08:51:52;28.50;99.90
27781;DHT22;15167;1.318;103.762;2023-04-24T08:54:18;28.60;99.90
27781;DHT22;15167;1.318;103.762;2023-04-24T08:56:45;28.90;99.90
27781;DHT22;15167;1.318;103.762;2023-04-24T08:59:14;29.00;99.90
27781;DHT22;15167;1.318;103.762;2023-04-24T09:01:41;29.10;99.90
27781;DHT22;15167;1.318;103.762;2023-04-24T09:04:10;29.20;99.90
27781;DHT22;15167;1.318;103.762;2023-04-24T09:06:37;29.40;99.90
27781;DHT22;15167;1.318;103.762;2023-04-24T09:09:04;29.50;99.90
27781;DHT22;15167;1.318;103.762;2023-04-24T09:11:31;29.60;99.90
27781;DHT22;15167;1.318;103.762;2023-04-24T09:13:58;29.70;99.90
27781;DHT22;15167;1.318;103.762;2023-04-24T09:16:25;29.80;99.90
27781;DHT22;15167;1.318;103.762;2023-04-24T09:18:52;30.00;99.90
27781;DHT22;15167;1.318;103.762;2023-04-24T09:21:20;30.00;99.90
27781;DHT22;15167;1.318;103.762;2023-04-24T09:23:46;30.10;99.90
27781;DHT22;15167;1.318;103.762;2023-04-24T09:26:12;30.20;99.90
27781;DHT22;15167;1.318;103.762;2023-04-24T09:28:40;30.10;99.40
27781;DHT22;15167;1.318;103.762;2023-04-24T09:31:11;30.00;69.30
27781;DHT22;15167;1.318;103.762;2023-04-24T09:33:38;30.00;59.40
27781;DHT22;15167;1.318;103.762;2023-04-24T09:36:04;30.10;54.60
27781;DHT22;15167;1.318;103.762;2023-04-24T09:38:40;30.10;92.60
27781;DHT22;15167;1.318;103.762;2023-04-24T09:41:07;29.90;99.90
27781;DHT22;15167;1.318;103.762;2023-04-24T09:43:34;29.50;99.90
27781;DHT22;15167;1.318;103.762;2023-04-24T09:46:04;29.30;99.90
27781;DHT22;15167;1.318;103.762;2023-04-24T09:48:34;29.20;99.90
27781;DHT22;15167;1.318;103.762;2023-04-24T09:51:01;29.30;99.90
27781;DHT22;15167;1.318;103.762;2023-04-24T09:53:29;29.20;99.90
27781;DHT22;15167;1.318;103.762;2023-04-24T09:55:55;29.20;99.90
27781;DHT22;15167;1.318;103.762;2023-04-24T09:58:25;29.10;99.90
27781;DHT22;15167;1.318;103.762;2023-04-24T10:00:54;29.20;99.90
27781;DHT22;15167;1.318;103.762;2023-04-24T10:03:21;29.20;99.90
27781;DHT22;15167;1.318;103.762;2023-04-24T10:05:49;29.30;99.90
27781;DHT22;15167;1.318;103.762;2023-04-24T10:08:17;29.20;99.90
27781;DHT22;15167;1.318;103.762;2023-04-24T10:10:43;29.30;99.90
27781;DHT22;15167;1.318;103.762;2023-04-24T10:13:10;29.30;99.90
27781;DHT22;15167;1.318;103.762;2023-04-24T10:15:37;29.30;99.90
27781;DHT22;15167;1.318;103.762;2023-04-24T10:18:07;29.30;99.90
27781;DHT22;15167;1.318;103.762;2023-04-24T10:20:34;29.40;99.90
27781;DHT22;15167;1.318;103.762;2023-04-24T10:23:01;29.50;99.90
27781;DHT22;15167;1.318;103.762;2023-04-24T10:25:32;29.50;99.90
27781;DHT22;15167;1.318;103.762;2023-04-24T10:27:59;29.50;99.90
27781;DHT22;15167;1.318;103.762;2023-04-24T10:30:26;29.60;99.90
27781;DHT22;15167;1.318;103.762;2023-04-24T10:32:52;29.60;99.90
27781;DHT22;15167;1.318;103.762;2023-04-24T10:35:18;29.60;99.90
27781;DHT22;15167;1.318;103.762;2023-04-24T10:38:03;29.60;99.90
27781;DHT22;15167;1.318;103.762;2023-04-24T10:40:31;29.50;99.90
27781;DHT22;15167;1.318;103.762;2023-04-24T10:42:58;29.50;99.90
27781;DHT22;15167;1.318;103.762;2023-04-24T10:45:25;29.50;99.90
27781;DHT22;15167;1.318;103.762;2023-04-24T10:48:04;29.50;99.90
27781;DHT22;15167;1.318;103.762;2023-04-24T10:50:47;29.40;99.90
27781;DHT22;15167;1.318;103.762;2023-04-24T10:53:17;29.40;99.90
27781;DHT22;15167;1.318;103.762;2023-04-24T10:55:47;29.40;99.90
27781;DHT22;15167;1.318;103.762;2023-04-24T10:58:14;29.40;99.90
27781;DHT22;15167;1.318;103.762;2023-04-24T11:00:42;29.30;99.90
27781;DHT22;15167;1.318;103.762;2023-04-24T11:03:26;29.30;99.90
27781;DHT22;15167;1.318;103.762;2023-04-24T11:06:05;29.30;99.90
27781;DHT22;15167;1.318;103.762;2023-04-24T11:11:11;29.20;99.90
27781;DHT22;15167;1.318;103.762;2023-04-24T11:19:07;29.10;99.90
27781;DHT22;15167;1.318;103.762;2023-04-24T11:21:41;29.20;99.90
27781;DHT22;15167;1.318;103.762;2023-04-24T11:24:23;29.20;99.90
27781;DHT22;15167;1.318;103.762;2023-04-24T11:27:04;29.20;99.90
27781;DHT22;15167;1.318;103.762;2023-04-24T11:32:22;29.20;99.90
27781;DHT22;15167;1.318;103.762;2023-04-24T11:34:49;29.20;99.90
27781;DHT22;15167;1.318;103.762;2023-04-24T11:37:16;29.20;99.90
27781;DHT22;15167;1.318;103.762;2023-04-24T11:39:42;29.20;99.90
27781;DHT22;15167;1.318;103.762;2023-04-24T11:42:08;29.20;99.90
27781;DHT22;15167;1.318;103.762;2023-04-24T11:44:35;29.20;99.90
27781;DHT22;15167;1.318;103.762;2023-04-24T11:47:04;29.20;99.90
27781;DHT22;15167;1.318;103.762;2023-04-24T11:49:31;29.10;99.90
27781;DHT22;15167;1.318;103.762;2023-04-24T11:51:57;29.10;99.90
27781;DHT22;15167;1.318;103.762;2023-04-24T11:54:23;29.10;99.90
27781;DHT22;15167;1.318;103.762;2023-04-24T11:56:49;29.10;99.90
27781;DHT22;15167;1.318;103.762;2023-04-24T11:59:16;29.00;99.90
27781;DHT22;15167;1.318;103.762;2023-04-24T12:01:43;29.00;99.90
27781;DHT22;15167;1.318;103.762;2023-04-24T12:04:10;29.10;99.90
27781;DHT22;15167;1.318;103.762;2023-04-24T12:06:36;29.10;99.90
27781;DHT22;15167;1.318;103.762;2023-04-24T12:09:02;29.00;99.90
27781;DHT22;15167;1.318;103.762;2023-04-24T12:11:28;29.00;99.90
27781;DHT22;15167;1.318;103.762;2023-04-24T12:13:54;29.00;99.90
27781;DHT22;15167;1.318;103.762;2023-04-24T12:16:20;29.00;99.90
27781;DHT22;15167;1.318;103.762;2023-04-24T12:18:47;29.00;99.90
27781;DHT22;15167;1.318;103.762;2023-04-24T12:21:19;29.00;99.90
27781;DHT22;15167;1.318;103.762;2023-04-24T12:23:45;29.00;99.90
27781;DHT22;15167;1.318;103.762;2023-04-24T12:26:15;28.90;99.90
27781;DHT22;15167;1.318;103.762;2023-04-24T12:28:42;28.90;99.90
27781;DHT22;15167;1.318;103.762;2023-04-24T12:31:08;28.90;99.90
27781;DHT22;15167;1.318;103.762;2023-04-24T12:33:34;28.80;99.90
27781;DHT22;15167;1.318;103.762;2023-04-24T12:36:01;28.90;99.90
27781;DHT22;15167;1.318;103.762;2023-04-24T12:38:28;28.80;99.90
27781;DHT22;15167;1.318;103.762;2023-04-24T12:43:31;28.80;99.90
27781;DHT22;15167;1.318;103.762;2023-04-24T12:45:58;28.80;99.90
27781;DHT22;15167;1.318;103.762;2023-04-24T12:48:25;28.80;99.90
27781;DHT22;15167;1.318;103.762;2023-04-24T12:50:51;28.80;99.90
27781;DHT22;15167;1.318;103.762;2023-04-24T12:53:17;28.80;99.90
27781;DHT22;15167;1.318;103.762;2023-04-24T12:55:43;28.80;99.90
27781;DHT22;15167;1.318;103.762;2023-04-24T12:58:10;28.80;99.90
27781;DHT22;15167;1.318;103.762;2023-04-24T13:00:37;28.80;99.90
27781;DHT22;15167;1.318;103.762;2023-04-24T13:03:04;28.80;99.90
27781;DHT22;15167;1.318;103.762;2023-04-24T13:05:30;28.80;99.90
27781;DHT22;15167;1.318;103.762;2023-04-24T13:07:57;28.80;99.90
27781;DHT22;15167;1.318;103.762;2023-04-24T13:10:23;28.80;99.90
27781;DHT22;15167;1.318;103.762;2023-04-24T13:12:49;28.80;99.90
27781;DHT22;15167;1.318;103.762;2023-04-24T13:15:15;28.80;99.90
27781;DHT22;15167;1.318;103.762;2023-04-24T13:17:41;28.80;99.90
27781;DHT22;15167;1.318;103.762;2023-04-24T13:20:08;28.80;99.90
27781;DHT22;15167;1.318;103.762;2023-04-24T13:22:34;28.80;99.90
27781;DHT22;15167;1.318;103.762;2023-04-24T13:25:00;28.80;99.90
27781;DHT22;15167;1.318;103.762;2023-04-24T13:27:26;28.80;99.90
27781;DHT22;15167;1.318;103.762;2023-04-24T13:29:52;28.80;99.90
27781;DHT22;15167;1.318;103.762;2023-04-24T13:32:18;28.90;99.90
27781;DHT22;15167;1.318;103.762;2023-04-24T13:34:45;28.80;99.90
27781;DHT22;15167;1.318;103.762;2023-04-24T13:37:11;28.90;99.90
27781;DHT22;15167;1.318;103.762;2023-04-24T13:39:37;28.80;99.90
27781;DHT22;15167;1.318;103.762;2023-04-24T13:42:03;28.80;99.90
27781;DHT22;15167;1.318;103.762;2023-04-24T13:44:29;28.80;99.90
27781;DHT22;15167;1.318;103.762;2023-04-24T13:46:56;28.80;99.90
27781;DHT22;15167;1.318;103.762;2023-04-24T13:49:22;28.80;99.90
27781;DHT22;15167;1.318;103.762;2023-04-24T13:51:50;28.80;99.90
27781;DHT22;15167;1.318;103.762;2023-04-24T13:54:16;28.80;99.90
27781;DHT22;15167;1.318;103.762;2023-04-24T13:56:42;28.80;99.90
27781;DHT22;15167;1.318;103.762;2023-04-24T13:59:09;28.80;99.90
27781;DHT22;15167;1.318;103.762;2023-04-24T14:01:35;28.80;99.90
27781;DHT22;15167;1.318;103.762;2023-04-24T14:04:02;28.80;99.90
27781;DHT22;15167;1.318;103.762;2023-04-24T14:06:28;28.80;99.90
27781;DHT22;15167;1.318;103.762;2023-04-24T14:08:54;28.80;99.90
27781;DHT22;15167;1.318;103.762;2023-04-24T14:11:20;28.70;99.90
27781;DHT22;15167;1.318;103.762;2023-04-24T14:13:46;28.70;99.90
27781;DHT22;15167;1.318;103.762;2023-04-24T14:16:12;28.70;99.90
27781;DHT22;15167;1.318;103.762;2023-04-24T14:18:39;28.70;99.90
27781;DHT22;15167;1.318;103.762;2023-04-24T14:21:05;28.60;99.90
27781;DHT22;15167;1.318;103.762;2023-04-24T14:23:32;28.60;99.90
27781;DHT22;15167;1.318;103.762;2023-04-24T14:25:58;28.50;99.90
27781;DHT22;15167;1.318;103.762;2023-04-24T14:28:24;28.50;99.90
27781;DHT22;15167;1.318;103.762;2023-04-24T14:30:51;28.50;99.90
27781;DHT22;15167;1.318;103.762;2023-04-24T14:33:18;28.40;99.90
27781;DHT22;15167;1.318;103.762;2023-04-24T14:35:44;28.40;99.90
27781;DHT22;15167;1.318;103.762;2023-04-24T14:38:10;28.30;99.90
27781;DHT22;15167;1.318;103.762;2023-04-24T14:40:37;28.30;99.90
27781;DHT22;15167;1.318;103.762;2023-04-24T14:43:03;28.30;99.90
27781;DHT22;15167;1.318;103.762;2023-04-24T14:45:29;28.20;1.00
27781;DHT22;15167;1.318;103.762;2023-04-24T14:47:55;28.20;1.00
27781;DHT22;15167;1.318;103.762;2023-04-24T14:50:22;28.20;1.00
27781;DHT22;15167;1.318;103.762;2023-04-24T14:52:51;28.20;1.00
27781;DHT22;15167;1.318;103.762;2023-04-24T14:55:17;28.10;1.00
27781;DHT22;15167;1.318;103.762;2023-04-24T14:57:43;28.10;1.00
27781;DHT22;15167;1.318;103.762;2023-04-24T15:00:09;28.20;1.00
27781;DHT22;15167;1.318;103.762;2023-04-24T15:02:36;28.10;1.00
27781;DHT22;15167;1.318;103.762;2023-04-24T15:05:05;28.10;1.00
27781;DHT22;15167;1.318;103.762;2023-04-24T15:07:32;28.10;1.00
27781;DHT22;15167;1.318;103.762;2023-04-24T15:09:58;28.20;1.00
27781;DHT22;15167;1.318;103.762;2023-04-24T15:12:24;28.20;1.00
27781;DHT22;15167;1.318;103.762;2023-04-24T15:14:51;28.20;1.00
27781;DHT22;15167;1.318;103.762;2023-04-24T15:17:17;28.20;1.00
27781;DHT22;15167;1.318;103.762;2023-04-24T15:19:43;28.10;1.00
27781;DHT22;15167;1.318;103.762;2023-04-24T15:22:09;28.10;1.00
27781;DHT22;15167;1.318;103.762;2023-04-24T15:24:35;28.10;1.00
27781;DHT22;15167;1.318;103.762;2023-04-24T15:27:01;28.00;1.00
27781;DHT22;15167;1.318;103.762;2023-04-24T15:29:28;28.00;1.00
27781;DHT22;15167;1.318;103.762;2023-04-24T15:31:54;28.00;1.80